sensor_id;sensor_type;location;lat;lon;timestamp;P1;durP1;ratioP1;P2;durP2;ratioP2
25637;SDS011;13496;51.040;13.680;2024-03-23T00:57:14;2.67;;;2.35;;
25637;SDS011;13496;51.040;13.680;2024-03-23T01:02:16;2.50;;;2.30;;
25637;SDS011;13496;51.040;13.680;2024-03-23T01:07:18;2.83;;;2.40;;
25637;SDS011;13496;51.040;13.680;2024-03-23T01:12:20;2.33;;;2.13;;
25637;SDS011;13496;51.040;13.680;2024-03-23T01:17:21;2.53;;;2.10;;
25637;SDS011;13496;51.040;13.680;2024-03-23T01:22:23;2.80;;;2.13;;
25637;SDS011;13496;51.040;13.680;2024-03-23T01:27:25;2.47;;;2.20;;
25637;SDS011;13496;51.040;13.680;2024-03-23T01:32:27;2.08;;;1.88;;
25637;SDS011;13496;51.040;13.680;2024-03-23T01:37:28;2.40;;;2.20;;
25637;SDS011;13496;51.040;13.680;2024-03-23T01:42:30;2.40;;;2.17;;
25637;SDS011;13496;51.040;13.680;2024-03-23T01:47:32;2.22;;;2.03;;
25637;SDS011;13496;51.040;13.680;2024-03-23T01:52:35;2.22;;;2.03;;
25637;SDS011;13496;51.040;13.680;2024-03-23T01:57:36;2.22;;;1.98;;
25637;SDS011;13496;51.040;13.680;2024-03-23T02:02:45;2.25;;;2.13;;
25637;SDS011;13496;51.040;13.680;2024-03-23T02:07:47;2.25;;;2.00;;
25637;SDS011;13496;51.040;13.680;2024-03-23T02:12:49;2.30;;;2.10;;
25637;SDS011;13496;51.040;13.680;2024-03-23T02:17:50;2.05;;;1.85;;
25637;SDS011;13496;51.040;13.680;2024-03-23T02:22:55;2.10;;;1.90;;
25637;SDS011;13496;51.040;13.680;2024-03-23T02:27:57;2.15;;;1.95;;
25637;SDS011;13496;51.040;13.680;2024-03-23T02:33:00;2.05;;;1.95;;
25637;SDS011;13496;51.040;13.680;2024-03-23T02:38:02;2.30;;;2.10;;
25637;SDS011;13496;51.040;13.680;2024-03-23T02:43:04;2.67;;;2.25;;
25637;SDS011;13496;51.040;13.680;2024-03-23T02:48:06;2.25;;;2.03;;
25637;SDS011;13496;51.040;13.680;2024-03-23T02:53:08;2.42;;;2.20;;
25637;SDS011;13496;51.040;13.680;2024-03-23T02:58:10;3.03;;;2.25;;
25637;SDS011;13496;51.040;13.680;2024-03-23T03:03:11;1.95;;;1.85;;
25637;SDS011;13496;51.040;13.680;2024-03-23T03:08:13;2.42;;;1.85;;
25637;SDS011;13496;51.040;13.680;2024-03-23T03:13:15;2.33;;;2.13;;
25637;SDS011;13496;51.040;13.680;2024-03-23T03:18:17;2.30;;;2.03;;
25637;SDS011;13496;51.040;13.680;2024-03-23T03:23:20;2.13;;;1.92;;
25637;SDS011;13496;51.040;13.680;2024-03-23T03:28:21;2.20;;;2.00;;
25637;SDS011;13496;51.040;13.680;2024-03-23T03:33:23;2.45;;;2.00;;
25637;SDS011;13496;51.040;13.680;2024-03-23T03:38:25;3.25;;;2.17;;
25637;SDS011;13496;51.040;13.680;2024-03-23T03:43:27;2.17;;;2.08;;
25637;SDS011;13496;51.040;13.680;2024-03-23T03:48:29;2.75;;;2.20;;
25637;SDS011;13496;51.040;13.680;2024-03-23T03:53:31;2.22;;;2.03;;
25637;SDS011;13496;51.040;13.680;2024-03-23T03:58:33;3.03;;;2.10;;
25637;SDS011;13496;51.040;13.680;2024-03-23T04:03:35;1.90;;;1.80;;
25637;SDS011;13496;51.040;13.680;2024-03-23T04:08:36;1.90;;;1.80;;
25637;SDS011;13496;51.040;13.680;2024-03-23T04:13:38;2.55;;;2.35;;
25637;SDS011;13496;51.040;13.680;2024-03-23T04:18:42;2.20;;;2.00;;
25637;SDS011;13496;51.040;13.680;2024-03-23T04:23:45;1.98;;;1.85;;
25637;SDS011;13496;51.040;13.680;2024-03-23T04:28:47;2.03;;;1.92;;
25637;SDS011;13496;51.040;13.680;2024-03-23T04:33:49;2.00;;;1.83;;
25637;SDS011;13496;51.040;13.680;2024-03-23T04:38:51;2.30;;;2.10;;
25637;SDS011;13496;51.040;13.680;2024-03-23T04:43:53;2.30;;;2.10;;
25637;SDS011;13496;51.040;13.680;2024-03-23T04:48:55;2.00;;;1.90;;
25637;SDS011;13496;51.040;13.680;2024-03-23T04:53:58;2.28;;;2.08;;
25637;SDS011;13496;51.040;13.680;2024-03-23T04:59:00;1.83;;;1.73;;
25637;SDS011;13496;51.040;13.680;2024-03-23T05:04:03;2.50;;;2.30;;
25637;SDS011;13496;51.040;13.680;2024-03-23T05:09:04;2.10;;;1.83;;
25637;SDS011;13496;51.040;13.680;2024-03-23T05:14:08;1.90;;;1.80;;
25637;SDS011;13496;51.040;13.680;2024-03-23T05:19:09;1.98;;;1.88;;
25637;SDS011;13496;51.040;13.680;2024-03-23T05:24:11;2.00;;;1.90;;
25637;SDS011;13496;51.040;13.680;2024-03-23T05:29:13;2.13;;;1.95;;
25637;SDS011;13496;51.040;13.680;2024-03-23T05:34:15;2.08;;;1.98;;
25637;SDS011;13496;51.040;13.680;2024-03-23T05:39:17;2.38;;;2.13;;
25637;SDS011;13496;51.040;13.680;2024-03-23T05:44:19;2.15;;;2.00;;
25637;SDS011;13496;51.040;13.680;2024-03-23T05:49:21;2.35;;;2.22;;
25637;SDS011;13496;51.040;13.680;2024-03-23T05:54:23;2.47;;;2.28;;
25637;SDS011;13496;51.040;13.680;2024-03-23T05:59:24;2.65;;;2.45;;
25637;SDS011;13496;51.040;13.680;2024-03-23T06:04:27;2.33;;;2.17;;
25637;SDS011;13496;51.040;13.680;2024-03-23T06:09:28;2.30;;;2.10;;
25637;SDS011;13496;51.040;13.680;2024-03-23T06:14:33;2.10;;;2.00;;
25637;SDS011;13496;51.040;13.680;2024-03-23T06:19:35;2.67;;;2.47;;
25637;SDS011;13496;51.040;13.680;2024-03-23T06:24:37;2.70;;;2.50;;
25637;SDS011;13496;51.040;13.680;2024-03-23T06:29:38;2.67;;;2.47;;
25637;SDS011;13496;51.040;13.680;2024-03-23T06:34:43;2.60;;;2.40;;
25637;SDS011;13496;51.040;13.680;2024-03-23T06:39:46;2.50;;;2.30;;
25637;SDS011;13496;51.040;13.680;2024-03-23T06:44:48;2.55;;;2.33;;
25637;SDS011;13496;51.040;13.680;2024-03-23T06:49:49;2.78;;;2.55;;
25637;SDS011;13496;51.040;13.680;2024-03-23T06:54:51;2.83;;;2.60;;
25637;SDS011;13496;51.040;13.680;2024-03-23T06:59:53;2.88;;;2.42;;
25637;SDS011;13496;51.040;13.680;2024-03-23T07:04:55;3.30;;;3.03;;
25637;SDS011;13496;51.040;13.680;2024-03-23T07:09:57;2.70;;;2.30;;
25637;SDS011;13496;51.040;13.680;2024-03-23T07:14:58;4.57;;;2.75;;
25637;SDS011;13496;51.040;13.680;2024-03-23T07:20:03;3.90;;;3.13;;
25637;SDS011;13496;51.040;13.680;2024-03-23T07:25:06;3.30;;;3.00;;
25637;SDS011;13496;51.040;13.680;2024-03-23T07:30:08;3.45;;;3.15;;
25637;SDS011;13496;51.040;13.680;2024-03-23T07:35:10;3.05;;;2.75;;
25637;SDS011;13496;51.040;13.680;2024-03-23T07:40:12;5.10;;;2.95;;
25637;SDS011;13496;51.040;13.680;2024-03-23T07:45:14;3.63;;;3.33;;
25637;SDS011;13496;51.040;13.680;2024-03-23T07:50:16;3.72;;;3.42;;
25637;SDS011;13496;51.040;13.680;2024-03-23T07:55:17;3.85;;;3.55;;
25637;SDS011;13496;51.040;13.680;2024-03-23T08:00:20;3.70;;;3.40;;
25637;SDS011;13496;51.040;13.680;2024-03-23T08:05:21;4.13;;;3.80;;
25637;SDS011;13496;51.040;13.680;2024-03-23T08:10:23;4.22;;;3.65;;
25637;SDS011;13496;51.040;13.680;2024-03-23T08:15:25;4.40;;;3.60;;
25637;SDS011;13496;51.040;13.680;2024-03-23T08:20:27;3.70;;;3.40;;
25637;SDS011;13496;51.040;13.680;2024-03-23T08:25:30;3.60;;;3.30;;
25637;SDS011;13496;51.040;13.680;2024-03-23T08:30:34;3.88;;;3.50;;
25637;SDS011;13496;51.040;13.680;2024-03-23T08:35:36;4.25;;;3.85;;
25637;SDS011;13496;51.040;13.680;2024-03-23T08:40:38;4.18;;;3.72;;
25637;SDS011;13496;51.040;13.680;2024-03-23T08:45:40;5.38;;;3.60;;
25637;SDS011;13496;51.040;13.680;2024-03-23T08:50:42;4.57;;;3.28;;
25637;SDS011;13496;51.040;13.680;2024-03-23T08:55:52;4.28;;;3.47;;
25637;SDS011;13496;51.040;13.680;2024-03-23T09:00:55;3.97;;;3.50;;
25637;SDS011;13496;51.040;13.680;2024-03-23T09:05:59;4.85;;;3.60;;
25637;SDS011;13496;51.040;13.680;2024-03-23T09:11:03;5.63;;;3.20;;
25637;SDS011;13496;51.040;13.680;2024-03-23T09:16:07;3.60;;;3.25;;
25637;SDS011;13496;51.040;13.680;2024-03-23T09:21:11;6.00;;;3.65;;
25637;SDS011;13496;51.040;13.680;2024-03-23T09:26:14;4.57;;;3.58;;
25637;SDS011;13496;51.040;13.680;2024-03-23T09:31:16;3.80;;;3.38;;
25637;SDS011;13496;51.040;13.680;2024-03-23T09:36:18;6.10;;;3.72;;
25637;SDS011;13496;51.040;13.680;2024-03-23T09:41:20;5.75;;;3.30;;
25637;SDS011;13496;51.040;13.680;2024-03-23T09:46:22;3.38;;;3.08;;
25637;SDS011;13496;51.040;13.680;2024-03-23T09:51:24;3.90;;;3.28;;
25637;SDS011;13496;51.040;13.680;2024-03-23T09:56:26;17.73;;;4.28;;
25637;SDS011;13496;51.040;13.680;2024-03-23T10:01:29;15.20;;;4.40;;
25637;SDS011;13496;51.040;13.680;2024-03-23T10:06:32;9.00;;;3.78;;
25637;SDS011;13496;51.040;13.680;2024-03-23T10:11:33;10.20;;;3.53;;
25637;SDS011;13496;51.040;13.680;2024-03-23T10:16:35;6.25;;;3.42;;
25637;SDS011;13496;51.040;13.680;2024-03-23T10:21:37;6.93;;;4.10;;
25637;SDS011;13496;51.040;13.680;2024-03-23T10:26:39;4.90;;;3.00;;
25637;SDS011;13496;51.040;13.680;2024-03-23T10:31:41;7.97;;;2.97;;
25637;SDS011;13496;51.040;13.680;2024-03-23T10:36:42;8.63;;;3.00;;
25637;SDS011;13496;51.040;13.680;2024-03-23T10:41:46;2.97;;;2.58;;
25637;SDS011;13496;51.040;13.680;2024-03-23T10:46:51;4.22;;;2.88;;
25637;SDS011;13496;51.040;13.680;2024-03-23T10:52:01;5.22;;;3.03;;
25637;SDS011;13496;51.040;13.680;2024-03-23T11:02:05;4.20;;;2.47;;
25637;SDS011;13496;51.040;13.680;2024-03-23T11:12:31;2.78;;;2.20;;
25637;SDS011;13496;51.040;13.680;2024-03-23T11:17:34;2.97;;;2.30;;
25637;SDS011;13496;51.040;13.680;2024-03-23T11:22:43;3.25;;;2.00;;
25637;SDS011;13496;51.040;13.680;2024-03-23T11:27:58;2.30;;;1.90;;
25637;SDS011;13496;51.040;13.680;2024-03-23T11:33:12;4.10;;;1.90;;
25637;SDS011;13496;51.040;13.680;2024-03-23T11:38:15;3.65;;;2.00;;
25637;SDS011;13496;51.040;13.680;2024-03-23T11:43:19;2.95;;;2.00;;
25637;SDS011;13496;51.040;13.680;2024-03-23T11:48:23;3.15;;;1.80;;
25637;SDS011;13496;51.040;13.680;2024-03-23T11:53:25;2.35;;;1.50;;
25637;SDS011;13496;51.040;13.680;2024-03-23T11:58:31;2.20;;;1.70;;
25637;SDS011;13496;51.040;13.680;2024-03-23T12:03:34;2.28;;;1.60;;
25637;SDS011;13496;51.040;13.680;2024-03-23T12:08:36;3.33;;;1.70;;
25637;SDS011;13496;51.040;13.680;2024-03-23T12:13:40;2.00;;;1.80;;
25637;SDS011;13496;51.040;13.680;2024-03-23T12:18:44;3.58;;;1.60;;
25637;SDS011;13496;51.040;13.680;2024-03-23T12:23:48;1.73;;;1.52;;
25637;SDS011;13496;51.040;13.680;2024-03-23T12:28:51;3.15;;;1.40;;
25637;SDS011;13496;51.040;13.680;2024-03-23T12:33:53;2.25;;;1.60;;
25637;SDS011;13496;51.040;13.680;2024-03-23T12:38:55;2.45;;;1.50;;
25637;SDS011;13496;51.040;13.680;2024-03-23T12:43:56;3.30;;;1.60;;
25637;SDS011;13496;51.040;13.680;2024-03-23T12:48:58;2.83;;;1.63;;
25637;SDS011;13496;51.040;13.680;2024-03-23T12:54:00;3.55;;;1.52;;
25637;SDS011;13496;51.040;13.680;2024-03-23T12:59:02;1.52;;;1.40;;
25637;SDS011;13496;51.040;13.680;2024-03-23T13:04:04;3.15;;;1.55;;
25637;SDS011;13496;51.040;13.680;2024-03-23T13:09:06;4.97;;;1.63;;
25637;SDS011;13496;51.040;13.680;2024-03-23T13:14:08;2.95;;;1.30;;
25637;SDS011;13496;51.040;13.680;2024-03-23T13:19:10;5.18;;;1.70;;
25637;SDS011;13496;51.040;13.680;2024-03-23T13:24:12;4.43;;;1.70;;
25637;SDS011;13496;51.040;13.680;2024-03-23T13:29:13;3.58;;;1.58;;
25637;SDS011;13496;51.040;13.680;2024-03-23T13:34:15;3.75;;;1.60;;
25637;SDS011;13496;51.040;13.680;2024-03-23T13:39:17;3.17;;;1.60;;
25637;SDS011;13496;51.040;13.680;2024-03-23T13:44:19;6.32;;;1.50;;
25637;SDS011;13496;51.040;13.680;2024-03-23T13:49:30;2.70;;;1.40;;
25637;SDS011;13496;51.040;13.680;2024-03-23T13:54:35;5.63;;;1.40;;
25637;SDS011;13496;51.040;13.680;2024-03-23T13:59:38;4.32;;;1.67;;
25637;SDS011;13496;51.040;13.680;2024-03-23T14:04:40;2.70;;;1.33;;
25637;SDS011;13496;51.040;13.680;2024-03-23T14:09:41;4.40;;;1.60;;
25637;SDS011;13496;51.040;13.680;2024-03-23T14:14:43;3.35;;;1.20;;
25637;SDS011;13496;51.040;13.680;2024-03-23T14:19:45;2.58;;;1.30;;
25637;SDS011;13496;51.040;13.680;2024-03-23T14:24:47;3.17;;;1.73;;
25637;SDS011;13496;51.040;13.680;2024-03-23T14:29:49;3.05;;;1.63;;
25637;SDS011;13496;51.040;13.680;2024-03-23T14:34:50;5.13;;;1.80;;
25637;SDS011;13496;51.040;13.680;2024-03-23T14:39:55;3.95;;;1.80;;
25637;SDS011;13496;51.040;13.680;2024-03-23T14:44:58;3.40;;;1.35;;
25637;SDS011;13496;51.040;13.680;2024-03-23T14:49:59;10.60;;;2.20;;
25637;SDS011;13496;51.040;13.680;2024-03-23T14:55:02;4.57;;;1.73;;
25637;SDS011;13496;51.040;13.680;2024-03-23T15:00:06;5.90;;;1.95;;
25637;SDS011;13496;51.040;13.680;2024-03-23T15:05:09;4.63;;;1.92;;
25637;SDS011;13496;51.040;13.680;2024-03-23T15:10:11;5.07;;;1.73;;
25637;SDS011;13496;51.040;13.680;2024-03-23T15:15:13;9.13;;;1.85;;
25637;SDS011;13496;51.040;13.680;2024-03-23T15:20:16;3.08;;;1.50;;
25637;SDS011;13496;51.040;13.680;2024-03-23T15:25:19;4.03;;;1.70;;
25637;SDS011;13496;51.040;13.680;2024-03-23T15:30:21;6.43;;;1.92;;
25637;SDS011;13496;51.040;13.680;2024-03-23T15:35:23;4.40;;;1.98;;
25637;SDS011;13496;51.040;13.680;2024-03-23T15:40:25;3.40;;;1.85;;
25637;SDS011;13496;51.040;13.680;2024-03-23T15:45:26;9.00;;;2.10;;
25637;SDS011;13496;51.040;13.680;2024-03-23T15:50:28;9.60;;;2.63;;
25637;SDS011;13496;51.040;13.680;2024-03-23T15:55:30;6.28;;;1.90;;
25637;SDS011;13496;51.040;13.680;2024-03-23T16:00:31;6.75;;;2.00;;
25637;SDS011;13496;51.040;13.680;2024-03-23T16:05:33;4.85;;;1.98;;
25637;SDS011;13496;51.040;13.680;2024-03-23T16:10:35;5.68;;;2.00;;
25637;SDS011;13496;51.040;13.680;2024-03-23T16:15:37;6.13;;;2.17;;
25637;SDS011;13496;51.040;13.680;2024-03-23T16:20:39;7.05;;;2.00;;
25637;SDS011;13496;51.040;13.680;2024-03-23T16:25:46;8.20;;;1.80;;
25637;SDS011;13496;51.040;13.680;2024-03-23T16:30:58;6.90;;;2.22;;
25637;SDS011;13496;51.040;13.680;2024-03-23T16:36:08;5.85;;;1.58;;
25637;SDS011;13496;51.040;13.680;2024-03-23T16:41:12;9.38;;;2.30;;
25637;SDS011;13496;51.040;13.680;2024-03-23T16:46:20;5.10;;;2.47;;
25637;SDS011;13496;51.040;13.680;2024-03-23T16:51:21;5.97;;;2.53;;
25637;SDS011;13496;51.040;13.680;2024-03-23T16:56:23;5.10;;;2.00;;
25637;SDS011;13496;51.040;13.680;2024-03-23T17:01:25;4.25;;;2.20;;
25637;SDS011;13496;51.040;13.680;2024-03-23T17:06:28;5.55;;;2.20;;
25637;SDS011;13496;51.040;13.680;2024-03-23T17:11:30;7.03;;;2.05;;
25637;SDS011;13496;51.040;13.680;2024-03-23T17:16:32;3.45;;;1.85;;
25637;SDS011;13496;51.040;13.680;2024-03-23T17:21:34;3.30;;;1.98;;
25637;SDS011;13496;51.040;13.680;2024-03-23T17:26:36;5.72;;;1.95;;
25637;SDS011;13496;51.040;13.680;2024-03-23T17:31:38;4.28;;;1.92;;
25637;SDS011;13496;51.040;13.680;2024-03-23T17:36:40;2.60;;;1.73;;
25637;SDS011;13496;51.040;13.680;2024-03-23T17:41:42;5.28;;;2.17;;
25637;SDS011;13496;51.040;13.680;2024-03-23T17:46:43;4.13;;;1.73;;
25637;SDS011;13496;51.040;13.680;2024-03-23T17:51:45;7.03;;;2.40;;
25637;SDS011;13496;51.040;13.680;2024-03-23T17:56:47;5.18;;;1.88;;
25637;SDS011;13496;51.040;13.680;2024-03-23T18:01:49;5.47;;;2.40;;
25637;SDS011;13496;51.040;13.680;2024-03-23T18:06:51;3.05;;;1.92;;
25637;SDS011;13496;51.040;13.680;2024-03-23T18:11:53;7.30;;;2.40;;
25637;SDS011;13496;51.040;13.680;2024-03-23T18:16:55;5.60;;;2.35;;
25637;SDS011;13496;51.040;13.680;2024-03-23T18:21:57;3.70;;;2.20;;
25637;SDS011;13496;51.040;13.680;2024-03-23T18:26:58;3.55;;;2.35;;
25637;SDS011;13496;51.040;13.680;2024-03-23T18:32:00;6.78;;;3.65;;
25637;SDS011;13496;51.040;13.680;2024-03-23T18:37:02;7.78;;;6.22;;
25637;SDS011;13496;51.040;13.680;2024-03-23T18:42:04;10.90;;;7.22;;
25637;SDS011;13496;51.040;13.680;2024-03-23T18:47:07;13.43;;;8.32;;
25637;SDS011;13496;51.040;13.680;2024-03-23T18:52:08;14.23;;;9.18;;
25637;SDS011;13496;51.040;13.680;2024-03-23T18:57:10;15.48;;;9.27;;
25637;SDS011;13496;51.040;13.680;2024-03-23T19:02:12;13.10;;;9.48;;
25637;SDS011;13496;51.040;13.680;2024-03-23T19:07:14;14.00;;;9.30;;
25637;SDS011;13496;51.040;13.680;2024-03-23T19:12:16;15.77;;;10.25;;
25637;SDS011;13496;51.040;13.680;2024-03-23T19:17:18;10.25;;;9.15;;
25637;SDS011;13496;51.040;13.680;2024-03-23T19:22:20;18.75;;;8.77;;
25637;SDS011;13496;51.040;13.680;2024-03-23T19:27:24;14.73;;;8.98;;
25637;SDS011;13496;51.040;13.680;2024-03-23T19:32:26;15.55;;;8.48;;
25637;SDS011;13496;51.040;13.680;2024-03-23T19:37:28;14.68;;;8.35;;
25637;SDS011;13496;51.040;13.680;2024-03-23T19:42:30;13.07;;;7.80;;
25637;SDS011;13496;51.040;13.680;2024-03-23T19:47:32;13.85;;;8.15;;
25637;SDS011;13496;51.040;13.680;2024-03-23T19:52:34;11.20;;;8.13;;
25637;SDS011;13496;51.040;13.680;2024-03-23T19:57:37;14.73;;;8.25;;
25637;SDS011;13496;51.040;13.680;2024-03-23T20:02:39;16.52;;;7.93;;
25637;SDS011;13496;51.040;13.680;2024-03-23T20:07:41;11.38;;;7.50;;
25637;SDS011;13496;51.040;13.680;2024-03-23T20:12:43;14.02;;;7.93;;
25637;SDS011;13496;51.040;13.680;2024-03-23T20:17:45;14.80;;;7.43;;
25637;SDS011;13496;51.040;13.680;2024-03-23T20:22:46;11.00;;;6.65;;
25637;SDS011;13496;51.040;13.680;2024-03-23T20:27:48;12.18;;;7.25;;
25637;SDS011;13496;51.040;13.680;2024-03-23T20:32:50;10.43;;;6.78;;
25637;SDS011;13496;51.040;13.680;2024-03-23T20:37:52;10.55;;;6.90;;
25637;SDS011;13496;51.040;13.680;2024-03-23T20:42:53;10.55;;;6.57;;
25637;SDS011;13496;51.040;13.680;2024-03-23T20:47:55;10.00;;;6.85;;
25637;SDS011;13496;51.040;13.680;2024-03-23T20:52:57;10.02;;;6.95;;
25637;SDS011;13496;51.040;13.680;2024-03-23T20:58:00;8.45;;;6.20;;
25637;SDS011;13496;51.040;13.680;2024-03-23T21:03:02;8.70;;;6.00;;
25637;SDS011;13496;51.040;13.680;2024-03-23T21:08:04;7.35;;;5.68;;
25637;SDS011;13496;51.040;13.680;2024-03-23T21:13:06;10.02;;;6.20;;
25637;SDS011;13496;51.040;13.680;2024-03-23T21:18:08;9.32;;;6.20;;
25637;SDS011;13496;51.040;13.680;2024-03-23T21:23:09;7.53;;;6.05;;
25637;SDS011;13496;51.040;13.680;2024-03-23T21:28:12;7.85;;;6.05;;
25637;SDS011;13496;51.040;13.680;2024-03-23T21:33:13;9.15;;;6.22;;
25637;SDS011;13496;51.040;13.680;2024-03-23T21:38:15;7.97;;;5.70;;
25637;SDS011;13496;51.040;13.680;2024-03-23T21:43:17;8.90;;;5.78;;
25637;SDS011;13496;51.040;13.680;2024-03-23T21:48:19;7.18;;;5.25;;
25637;SDS011;13496;51.040;13.680;2024-03-23T21:53:20;6.40;;;5.45;;
25637;SDS011;13496;51.040;13.680;2024-03-23T21:58:23;6.40;;;5.40;;
25637;SDS011;13496;51.040;13.680;2024-03-23T22:03:26;8.13;;;5.10;;
25637;SDS011;13496;51.040;13.680;2024-03-23T22:08:27;8.30;;;5.20;;
25637;SDS011;13496;51.040;13.680;2024-03-23T22:13:30;7.20;;;4.78;;
25637;SDS011;13496;51.040;13.680;2024-03-23T22:18:33;7.05;;;5.55;;
25637;SDS011;13496;51.040;13.680;2024-03-23T22:23:34;7.05;;;5.25;;
25637;SDS011;13496;51.040;13.680;2024-03-23T22:28:36;6.43;;;5.30;;
25637;SDS011;13496;51.040;13.680;2024-03-23T22:33:38;5.95;;;4.95;;
25637;SDS011;13496;51.040;13.680;2024-03-23T22:38:40;6.40;;;5.13;;
25637;SDS011;13496;51.040;13.680;2024-03-23T22:43:42;6.32;;;4.63;;
25637;SDS011;13496;51.040;13.680;2024-03-23T22:48:43;6.72;;;4.50;;
25637;SDS011;13496;51.040;13.680;2024-03-23T22:53:45;5.75;;;4.63;;
25637;SDS011;13496;51.040;13.680;2024-03-23T22:58:47;6.05;;;4.45;;
25637;SDS011;13496;51.040;13.680;2024-03-23T23:03:49;4.63;;;3.92;;
25637;SDS011;13496;51.040;13.680;2024-03-23T23:08:51;4.68;;;4.25;;
25637;SDS011;13496;51.040;13.680;2024-03-23T23:13:53;5.75;;;4.18;;
25637;SDS011;13496;51.040;13.680;2024-03-23T23:18:55;4.30;;;3.90;;
25637;SDS011;13496;51.040;13.680;2024-03-23T23:23:56;4.85;;;4.03;;
25637;SDS011;13496;51.040;13.680;2024-03-23T23:29:00;5.18;;;4.22;;
25637;SDS011;13496;51.040;13.680;2024-03-23T23:34:02;4.15;;;3.70;;
25637;SDS011;13496;51.040;13.680;2024-03-23T23:39:04;5.18;;;3.83;;
25637;SDS011;13496;51.040;13.680;2024-03-23T23:44:05;4.65;;;3.92;;
25637;SDS011;13496;51.040;13.680;2024-03-23T23:49:07;4.22;;;3.70;;
25637;SDS011;13496;51.040;13.680;2024-03-23T23:54:09;5.15;;;3.88;;
25637;SDS011;13496;51.040;13.680;2024-03-23T23:59:11;3.60;;;3.30;;
